Time;durP1;ratioP1;P1;durP2;ratioP2;P2;SDS_P1;SDS_P2;PMS_P1;PMS_P2;Temp;Humidity;BMP_temperature;BMP_pressure;BME280_temperature;BME280_humidity;BME280_pressure;Samples;Min_cycle;Max_cycle;Signal;HPM_P1;HPM_P2
2022/09/16 00:01:11;;;;;;;8.70;2.92;;;24.60;96.70;;;;;;5107076;27;20602;-76
2022/09/16 00:03:40;;;;;;;8.85;2.55;;;24.50;96.70;;;;;;5104485;28;20047;-76
2022/09/16 00:06:17;;;;;;;12.43;2.78;;;24.50;96.70;;;;;;5104864;28;20047;-75
2022/09/16 00:08:47;;;;;;;9.45;2.40;;;24.50;96.70;;;;;;5103492;28;20043;-76
2022/09/16 00:11:16;;;;;;;11.88;3.33;;;24.50;96.70;;;;;;5105620;28;21470;-76
2022/09/16 00:13:44;;;;;;;7.88;2.75;;;24.50;96.70;;;;;;5102671;28;20404;-76
2022/09/16 00:16:16;;;;;;;10.15;2.63;;;24.50;96.70;;;;;;5103301;28;20523;-75
2022/09/16 00:18:44;;;;;;;11.25;3.03;;;24.50;96.70;;;;;;5104376;28;20043;-76
2022/09/16 00:21:13;;;;;;;8.75;2.95;;;24.40;96.70;;;;;;5087443;28;20051;-75
2022/09/16 00:23:41;;;;;;;7.60;2.30;;;24.30;96.70;;;;;;5105293;28;20032;-76
2022/09/16 00:26:11;;;;;;;8.27;3.03;;;24.30;96.70;;;;;;5086939;28;20081;-76
2022/09/16 00:28:39;;;;;;;8.02;2.75;;;24.30;96.70;;;;;;5104177;28;20047;-77
2022/09/16 00:31:07;;;;;;;7.30;2.60;;;24.30;96.70;;;;;;5103792;28;20123;-76
2022/09/16 00:33:36;;;;;;;8.13;3.05;;;24.30;96.70;;;;;;5105289;28;20097;-76
2022/09/16 00:36:06;;;;;;;6.15;2.40;;;24.30;96.70;;;;;;5101613;28;20138;-76
2022/09/16 00:38:34;;;;;;;11.30;2.63;;;24.10;96.70;;;;;;5088173;28;20067;-76
2022/09/16 00:41:03;;;;;;;8.98;3.03;;;24.00;96.70;;;;;;5103304;28;20039;-76
2022/09/16 00:43:49;;;;;;;9.55;2.83;;;24.00;96.70;;;;;;5105679;28;20514;-76
2022/09/16 00:46:22;;;;;;;11.48;3.03;;;24.00;96.70;;;;;;5087742;28;20047;-76
2022/09/16 00:48:50;;;;;;;7.13;2.45;;;24.00;96.70;;;;;;5104999;28;20196;-76
2022/09/16 00:51:19;;;;;;;12.13;2.75;;;24.00;96.70;;;;;;5102919;28;20040;-76
2022/09/16 00:53:55;;;;;;;12.50;2.95;;;24.00;96.70;;;;;;5104466;28;20043;-76
2022/09/16 00:56:26;;;;;;;10.50;2.37;;;23.90;96.70;;;;;;5104180;28;20051;-76
2022/09/16 00:59:02;;;;;;;7.10;2.28;;;24.00;96.70;;;;;;5100080;28;21084;-77
2022/09/16 01:01:31;;;;;;;6.53;2.25;;;23.90;96.70;;;;;;5100407;28;20043;-76
2022/09/16 01:04:03;;;;;;;11.40;3.25;;;24.00;96.70;;;;;;5105556;28;20116;-76
2022/09/16 01:06:34;;;;;;;8.65;2.65;;;24.00;96.70;;;;;;5101574;28;20573;-76
2022/09/16 01:09:03;;;;;;;8.80;3.03;;;24.00;96.70;;;;;;5105161;28;20047;-77
2022/09/16 01:11:31;;;;;;;9.38;2.58;;;24.00;96.70;;;;;;5102696;28;20040;-76
2022/09/16 01:16:58;;;;;;;9.95;3.03;;;23.80;96.70;;;;;;5100419;28;20055;-76
2022/09/16 01:19:31;;;;;;;;;;;23.70;96.70;;;;;;5086697;28;20067;-76
2022/09/16 01:22:10;;;;;;;8.70;2.42;;;23.70;96.70;;;;;;5104979;28;19923;-76
2022/09/16 01:24:51;;;;;;;7.13;2.33;;;23.70;96.70;;;;;;5094224;28;20540;-76
2022/09/16 01:27:49;;;;;;;9.90;2.50;;;23.70;96.70;;;;;;5106066;28;20047;-76
2022/09/16 01:30:46;;;;;;;6.70;2.25;;;23.70;96.70;;;;;;5098037;28;20453;-76
2022/09/16 01:33:25;;;;;;;8.40;2.28;;;23.60;96.70;;;;;;5085171;28;20496;-76
2022/09/16 01:36:13;;;;;;;6.90;2.10;;;23.70;96.70;;;;;;5102306;28;20051;-77
2022/09/16 01:39:07;;;;;;;8.15;2.53;;;23.70;96.70;;;;;;5100240;28;20048;-76
2022/09/16 01:41:53;;;;;;;7.70;2.80;;;23.70;96.70;;;;;;5100046;28;20595;-76
2022/09/16 01:44:30;;;;;;;9.03;2.87;;;23.70;96.70;;;;;;5100548;28;20075;-76
2022/09/16 01:47:06;;;;;;;10.95;3.05;;;23.70;96.70;;;;;;5103330;28;20088;-76
2022/09/16 01:49:42;;;;;;;7.75;2.13;;;23.50;96.70;;;;;;5102941;28;20044;-76
2022/09/16 01:52:20;;;;;;;12.20;3.67;;;23.50;96.70;;;;;;5099258;28;20562;-76
2022/09/16 01:54:52;;;;;;;8.52;2.80;;;23.50;96.70;;;;;;5083604;28;20064;-77
2022/09/16 01:57:26;;;;;;;10.77;2.88;;;23.60;96.70;;;;;;5096104;28;20051;-76
2022/09/16 02:00:01;;;;;;;8.27;2.40;;;23.50;96.70;;;;;;5046276;28;20064;-76
2022/09/16 02:02:38;;;;;;;8.68;2.47;;;23.40;96.70;;;;;;5062256;28;20052;-76
2022/09/16 02:05:12;;;;;;;10.38;2.60;;;23.50;96.70;;;;;;5054099;28;20060;-76
2022/09/16 02:07:48;;;;;;;6.70;2.70;;;23.50;96.70;;;;;;5052686;28;20490;-77
2022/09/16 02:10:22;;;;;;;11.35;3.00;;;23.50;96.70;;;;;;5054055;28;20040;-76
2022/09/16 02:12:53;;;;;;;5.88;1.92;;;23.40;96.70;;;;;;5057988;28;20052;-76
2022/09/16 02:15:24;;;;;;;6.43;2.33;;;23.40;96.70;;;;;;5060393;28;20058;-75
2022/09/16 02:17:58;;;;;;;5.68;1.85;;;23.40;96.70;;;;;;5057463;28;20048;-75
2022/09/16 02:20:29;;;;;;;9.18;2.25;;;23.50;96.70;;;;;;5063202;28;20398;-76
2022/09/16 02:23:01;;;;;;;8.25;2.55;;;23.60;96.70;;;;;;5057259;28;20071;-75
2022/09/16 02:25:34;;;;;;;6.55;1.95;;;23.50;96.70;;;;;;5043159;28;20165;-75
2022/09/16 02:28:11;;;;;;;8.68;1.90;;;23.50;96.70;;;;;;5059095;28;20097;-75
2022/09/16 02:30:44;;;;;;;12.38;2.65;;;23.50;96.70;;;;;;5058227;28;20041;-75
2022/09/16 02:33:15;;;;;;;9.20;1.90;;;23.40;96.70;;;;;;5058274;28;20043;-76
2022/09/16 02:35:48;;;;;;;4.75;1.80;;;23.30;96.70;;;;;;5062537;28;20052;-75
2022/09/16 02:38:24;;;;;;;7.43;2.03;;;23.30;96.70;;;;;;5061416;28;20040;-75
2022/09/16 02:40:55;;;;;;;6.55;1.80;;;23.40;96.70;;;;;;5044939;28;20069;-75
2022/09/16 02:43:24;;;;;;;7.70;2.35;;;23.30;96.70;;;;;;5061409;28;20120;-76
2022/09/16 02:46:05;;;;;;;6.72;1.55;;;23.40;96.70;;;;;;5058504;28;20079;-75
2022/09/16 02:48:42;;;;;;;5.78;1.77;;;23.40;96.70;;;;;;5063588;28;20123;-75
2022/09/16 02:51:17;;;;;;;8.98;3.38;;;23.40;96.70;;;;;;5062954;28;20048;-75
2022/09/16 02:53:49;;;;;;;6.13;2.13;;;23.30;96.70;;;;;;5066653;28;20128;-76
2022/09/16 02:56:23;;;;;;;9.93;2.80;;;23.30;96.70;;;;;;5061455;28;20071;-75
2022/09/16 02:58:52;;;;;;;8.02;2.40;;;23.30;96.70;;;;;;5088625;28;20056;-76
2022/09/16 03:01:21;;;;;;;10.32;2.40;;;23.20;96.70;;;;;;5103410;28;20282;-75
2022/09/16 03:03:55;;;;;;;5.63;1.90;;;23.10;96.70;;;;;;5090494;28;20048;-76
2022/09/16 03:06:24;;;;;;;11.40;2.63;;;23.10;96.70;;;;;;5102556;28;20070;-75
2022/09/16 03:08:56;;;;;;;9.88;2.90;;;23.10;96.70;;;;;;5105104;28;20044;-75
2022/09/16 03:11:52;;;;;;;6.03;1.83;;;23.10;96.70;;;;;;5091232;28;20093;-75
2022/09/16 03:14:53;;;;;;;9.75;2.55;;;23.10;96.70;;;;;;5104679;28;20063;-75
2022/09/16 03:17:44;;;;;;;6.05;1.90;;;23.00;96.70;;;;;;5104985;28;20230;-76
2022/09/16 03:20:24;;;;;;;8.00;2.17;;;23.00;96.70;;;;;;5093864;28;20051;-75
2022/09/16 03:23:00;;;;;;;8.95;2.33;;;23.00;96.70;;;;;;5086099;28;20417;-75
2022/09/16 03:25:39;;;;;;;8.20;2.58;;;23.00;96.70;;;;;;5102446;28;20437;-75
2022/09/16 03:28:12;;;;;;;7.68;2.15;;;23.00;96.70;;;;;;5108369;28;20097;-75
2022/09/16 03:30:47;;;;;;;6.63;2.10;;;23.00;96.70;;;;;;5103262;28;20611;-76
2022/09/16 03:33:22;;;;;;;7.10;1.88;;;23.00;96.70;;;;;;5107791;28;20040;-75
2022/09/16 03:35:56;;;;;;;8.13;2.30;;;22.90;96.70;;;;;;5102949;28;20058;-76
2022/09/16 03:38:24;;;;;;;6.88;2.00;;;22.80;96.70;;;;;;5105781;28;20683;-76
2022/09/16 03:40:53;;;;;;;4.43;2.13;;;22.90;96.70;;;;;;5105263;28;20043;-76
2022/09/16 03:43:21;;;;;;;8.45;2.03;;;22.90;96.70;;;;;;5103851;28;20048;-76
2022/09/16 03:45:51;;;;;;;5.75;2.45;;;22.90;96.70;;;;;;5105794;28;20043;-75
2022/09/16 03:48:19;;;;;;;5.28;1.95;;;22.90;96.70;;;;;;5104099;28;20044;-75
2022/09/16 03:50:47;;;;;;;5.38;2.10;;;22.90;96.70;;;;;;5107674;28;20047;-75
2022/09/16 03:53:17;;;;;;;7.35;2.50;;;22.90;96.70;;;;;;5105758;28;20073;-75
2022/09/16 03:55:47;;;;;;;6.15;1.90;;;22.80;96.70;;;;;;5104818;27;20115;-75
2022/09/16 03:58:15;;;;;;;6.47;1.88;;;22.80;96.70;;;;;;5105242;28;20597;-75
2022/09/16 04:00:49;;;;;;;5.07;1.75;;;22.80;96.70;;;;;;5104057;28;20067;-75
2022/09/16 04:03:17;;;;;;;6.60;2.08;;;22.80;96.70;;;;;;5093281;28;20061;-76
2022/09/16 04:05:50;;;;;;;5.25;1.55;;;22.80;96.70;;;;;;5107401;28;20063;-78
2022/09/16 04:08:21;;;;;;;7.93;1.55;;;22.80;96.70;;;;;;5103417;28;20082;-77
2022/09/16 04:10:53;;;;;;;6.40;1.77;;;22.80;96.70;;;;;;5105670;28;20075;-76
2022/09/16 04:13:22;;;;;;;4.57;1.33;;;22.80;96.70;;;;;;5101925;28;20493;-76
2022/09/16 04:15:50;;;;;;;9.20;2.70;;;22.80;96.70;;;;;;5105482;28;20043;-76
2022/09/16 04:18:19;;;;;;;18.95;8.48;;;22.70;96.70;;;;;;5105688;28;20058;-76
2022/09/16 04:20:47;;;;;;;45.28;24.90;;;22.80;96.70;;;;;;5089131;28;20035;-77
2022/09/16 04:23:15;;;;;;;45.10;23.42;;;22.60;96.70;;;;;;5099735;28;20116;-77
2022/09/16 04:25:53;;;;;;;31.63;19.20;;;22.40;96.70;;;;;;5088796;28;20054;-77
2022/09/16 04:28:22;;;;;;;26.15;14.57;;;22.50;96.70;;;;;;5102637;28;20052;-78
2022/09/16 04:30:50;;;;;;;15.48;9.43;;;22.60;96.70;;;;;;5105475;28;20204;-77
2022/09/16 04:33:19;;;;;;;15.07;6.82;;;22.60;96.70;;;;;;5099793;28;20134;-77
2022/09/16 04:35:47;;;;;;;7.93;4.10;;;22.60;96.70;;;;;;5105431;28;20127;-76
2022/09/16 04:38:16;;;;;;;9.02;4.03;;;22.70;96.70;;;;;;5105054;28;20471;-77
2022/09/16 04:40:45;;;;;;;7.60;2.80;;;22.70;96.70;;;;;;5102728;27;20047;-77
2022/09/16 04:43:13;;;;;;;11.10;4.53;;;22.70;96.70;;;;;;5104550;28;20392;-77
2022/09/16 04:45:42;;;;;;;8.30;5.30;;;22.60;96.70;;;;;;5086709;28;20047;-77
2022/09/16 04:48:10;;;;;;;14.63;7.78;;;22.60;96.70;;;;;;5103786;28;20059;-77
2022/09/16 04:50:38;;;;;;;28.38;14.93;;;22.60;96.70;;;;;;5101974;28;20106;-77
2022/09/16 04:53:06;;;;;;;43.08;23.33;;;22.60;96.70;;;;;;5101042;28;20039;-77
2022/09/16 04:55:35;;;;;;;44.70;24.58;;;22.70;96.70;;;;;;5085980;28;20597;-78
2022/09/16 04:58:05;;;;;;;59.80;29.67;;;22.70;96.70;;;;;;5101429;28;20136;-77
2022/09/16 05:00:33;;;;;;;58.05;31.25;;;22.60;96.70;;;;;;5099786;28;20059;-78
2022/09/16 05:03:01;;;;;;;50.35;26.92;;;22.60;96.70;;;;;;5103325;28;20052;-77
2022/09/16 05:05:29;;;;;;;50.50;24.05;;;22.60;96.70;;;;;;5100617;28;20067;-78
2022/09/16 05:07:57;;;;;;;34.42;18.10;;;22.70;96.70;;;;;;5106100;27;20040;-78
2022/09/16 05:10:27;;;;;;;29.40;13.77;;;22.80;96.70;;;;;;5103760;28;20039;-78
2022/09/16 05:12:55;;;;;;;24.67;12.95;;;22.80;96.70;;;;;;5103004;28;20043;-77
2022/09/16 05:15:25;;;;;;;22.70;11.07;;;22.80;96.70;;;;;;5101865;28;20047;-77
2022/09/16 05:17:53;;;;;;;27.95;13.30;;;22.80;96.70;;;;;;5105245;28;20095;-76
2022/09/16 05:20:22;;;;;;;25.80;12.02;;;22.80;96.70;;;;;;5099673;28;20390;-77
2022/09/16 05:22:50;;;;;;;20.75;12.07;;;22.90;96.70;;;;;;5083830;28;20500;-76
2022/09/16 05:25:18;;;;;;;18.55;10.88;;;22.90;96.70;;;;;;5096773;28;20959;-76
2022/09/16 05:27:46;;;;;;;18.75;8.63;;;22.80;96.70;;;;;;5105786;28;20476;-76
2022/09/16 05:30:16;;;;;;;13.32;5.90;;;22.80;96.70;;;;;;5100360;28;20411;-76
2022/09/16 05:32:45;;;;;;;10.32;4.85;;;22.80;96.70;;;;;;5100746;28;20039;-76
2022/09/16 05:35:14;;;;;;;10.85;4.50;;;22.70;96.70;;;;;;5101037;28;20081;-76
2022/09/16 05:37:42;;;;;;;10.02;3.70;;;22.60;96.70;;;;;;5105440;28;20100;-76
2022/09/16 05:40:10;;;;;;;8.02;3.30;;;22.50;96.70;;;;;;5101719;28;20040;-76
2022/09/16 05:42:39;;;;;;;8.98;4.15;;;22.60;96.70;;;;;;5105541;28;20040;-76
2022/09/16 05:45:08;;;;;;;7.75;3.30;;;22.70;96.70;;;;;;5098223;28;20058;-77
2022/09/16 05:47:36;;;;;;;11.25;4.25;;;22.80;96.70;;;;;;5096273;28;20598;-77
2022/09/16 05:50:07;;;;;;;9.07;3.03;;;22.90;96.70;;;;;;5085506;28;20668;-76
2022/09/16 05:52:36;;;;;;;8.23;3.42;;;23.00;96.70;;;;;;5103575;28;20071;-76
2022/09/16 05:55:05;;;;;;;12.38;3.75;;;23.00;96.70;;;;;;5103592;28;20042;-75
2022/09/16 05:57:33;;;;;;;12.32;4.47;;;23.10;96.70;;;;;;5101767;28;20066;-76
2022/09/16 06:00:02;;;;;;;12.32;4.78;;;23.00;96.70;;;;;;5099050;28;21444;-76
2022/09/16 06:02:37;;;;;;;11.85;5.38;;;23.00;96.70;;;;;;5101650;28;20039;-76
2022/09/16 06:05:08;;;;;;;11.85;5.70;;;23.10;96.70;;;;;;5096786;28;20070;-77
2022/09/16 06:07:36;;;;;;;13.88;6.85;;;23.30;96.70;;;;;;5098556;28;20085;-78
2022/09/16 06:10:06;;;;;;;10.25;6.45;;;23.40;96.70;;;;;;5103160;28;20142;-77
2022/09/16 06:12:34;;;;;;;10.70;6.15;;;23.40;96.70;;;;;;5101636;28;20046;-79
2022/09/16 06:15:02;;;;;;;13.10;7.10;;;23.40;96.70;;;;;;5101852;28;20036;-76
2022/09/16 06:17:30;;;;;;;14.18;7.88;;;23.40;96.70;;;;;;5102585;28;20112;-77
2022/09/16 06:19:58;;;;;;;17.30;10.35;;;23.40;96.70;;;;;;5102350;28;20095;-76
2022/09/16 06:22:31;;;;;;;15.18;9.57;;;23.50;96.70;;;;;;5098568;28;20505;-76
2022/09/16 06:24:59;;;;;;;14.35;9.65;;;23.50;96.70;;;;;;5095503;28;20048;-76
2022/09/16 06:27:30;;;;;;;18.13;9.73;;;23.50;96.70;;;;;;5101495;28;20097;-76
2022/09/16 06:29:58;;;;;;;17.48;9.05;;;23.60;96.70;;;;;;5103684;28;20170;-77
2022/09/16 06:32:31;;;;;;;15.90;7.32;;;23.80;96.70;;;;;;5099297;28;20142;-76
2022/09/16 06:35:00;;;;;;;16.27;6.65;;;23.80;96.70;;;;;;5103056;28;20134;-77
2022/09/16 06:37:28;;;;;;;11.68;6.22;;;23.90;96.70;;;;;;5098734;28;20517;-76
2022/09/16 06:39:57;;;;;;;13.45;5.63;;;24.00;96.70;;;;;;5102913;28;20059;-76
2022/09/16 06:42:27;;;;;;;15.25;6.13;;;24.10;96.70;;;;;;5083323;28;20134;-80
2022/09/16 06:45:03;;;;;;;40.83;8.68;;;24.30;96.70;;;;;;5088225;28;20036;-76
2022/09/16 06:47:34;;;;;;;55.95;11.32;;;24.30;96.70;;;;;;5083439;28;20139;-76
2022/09/16 06:50:04;;;;;;;34.03;7.03;;;24.30;96.70;;;;;;5103233;28;20058;-76
2022/09/16 06:52:32;;;;;;;32.25;6.45;;;24.40;96.70;;;;;;5096978;28;20500;-77
2022/09/16 06:55:01;;;;;;;32.28;7.78;;;24.60;96.70;;;;;;5105057;28;20036;-74
2022/09/16 06:57:30;;;;;;;13.63;5.72;;;24.70;96.70;;;;;;5097991;28;20046;-76
2022/09/16 06:59:58;;;;;;;17.55;6.22;;;24.80;96.70;;;;;;5103264;28;20044;-77
2022/09/16 07:02:27;;;;;;;21.65;5.88;;;24.80;96.70;;;;;;5102629;28;20035;-77
2022/09/16 07:04:55;;;;;;;17.45;5.05;;;24.80;96.70;;;;;;5082810;28;20059;-79
2022/09/16 07:07:28;;;;;;;20.17;4.93;;;24.90;96.70;;;;;;5101909;28;20035;-79
2022/09/16 07:09:57;;;;;;;13.32;5.25;;;25.00;96.70;;;;;;5099781;28;20048;-78
2022/09/16 07:12:28;;;;;;;16.05;5.65;;;25.10;96.70;;;;;;5098293;28;20044;-77
2022/09/16 07:15:01;;;;;;;19.45;5.43;;;25.10;96.70;;;;;;5097826;28;20036;-79
2022/09/16 07:17:30;;;;;;;18.08;5.35;;;25.10;96.70;;;;;;5092736;28;20044;-80
2022/09/16 07:19:59;;;;;;;12.02;4.82;;;25.20;96.70;;;;;;5094839;28;20554;-80
2022/09/16 07:22:31;;;;;;;9.77;3.72;;;25.30;96.70;;;;;;5102868;28;20054;-79
2022/09/16 07:25:00;;;;;;;14.40;5.57;;;25.40;96.70;;;;;;5075461;28;20048;-79
2022/09/16 07:27:31;;;;;;;9.60;4.53;;;25.60;96.70;;;;;;5098321;28;20044;-78
2022/09/16 07:30:00;;;;;;;13.57;4.00;;;25.60;96.70;;;;;;5098894;28;20470;-77
2022/09/16 07:32:34;;;;;;;9.98;4.47;;;25.70;96.70;;;;;;5101878;28;20050;-77
2022/09/16 07:35:02;;;;;;;14.75;4.35;;;25.70;96.70;;;;;;5098546;28;20040;-76
2022/09/16 07:37:30;;;;;;;12.77;4.45;;;25.80;96.70;;;;;;5106272;28;20476;-79
2022/09/16 07:39:58;;;;;;;11.75;4.18;;;25.80;96.70;;;;;;5102360;28;20447;-79
2022/09/16 07:42:30;;;;;;;18.25;4.45;;;25.80;96.70;;;;;;5105784;28;20078;-77
2022/09/16 07:44:58;;;;;;;10.85;3.60;;;25.90;96.70;;;;;;5103222;28;20505;-77
2022/09/16 07:47:26;;;;;;;12.40;3.15;;;26.00;96.70;;;;;;5107184;28;20120;-76
2022/09/16 07:49:55;;;;;;;9.35;2.03;;;26.20;96.70;;;;;;5101251;28;20039;-78
2022/09/16 07:52:28;;;;;;;7.95;2.03;;;26.40;96.70;;;;;;5103991;28;20458;-79
2022/09/16 07:54:56;;;;;;;10.02;1.70;;;26.60;96.70;;;;;;5101177;28;20046;-79
2022/09/16 07:57:24;;;;;;;8.48;1.65;;;26.80;96.70;;;;;;5097330;27;20036;-76
2022/09/16 07:59:56;;;;;;;3.70;1.40;;;26.80;96.70;;;;;;5085127;28;20462;-77
2022/09/16 08:02:25;;;;;;;5.03;1.58;;;26.90;96.70;;;;;;5095111;28;20047;-79
2022/09/16 08:04:55;;;;;;;5.90;1.38;;;27.10;96.70;;;;;;5085028;28;20421;-80
2022/09/16 08:07:23;;;;;;;8.60;1.60;;;27.20;96.70;;;;;;5096982;27;20040;-80
2022/09/16 08:09:51;;;;;;;6.68;1.40;;;27.30;96.70;;;;;;5102579;27;20130;-79
2022/09/16 08:12:20;;;;;;;9.07;1.38;;;27.40;96.70;;;;;;5075272;28;20631;-77
2022/09/16 08:14:49;;;;;;;8.25;2.22;;;27.40;96.70;;;;;;5099374;28;20050;-79
2022/09/16 08:17:18;;;;;;;9.05;1.80;;;27.40;96.70;;;;;;5103311;28;20035;-84
2022/09/16 08:19:47;;;;;;;10.30;1.20;;;27.50;96.70;;;;;;5096309;28;20055;-76
2022/09/16 08:22:15;;;;;;;4.88;1.40;;;27.50;96.70;;;;;;5091687;27;20123;-78
2022/09/16 08:24:43;;;;;;;7.40;1.35;;;27.50;96.70;;;;;;5096136;28;20058;-81
2022/09/16 08:27:12;;;;;;;11.85;1.50;;;27.60;96.70;;;;;;5100147;28;20459;-81
2022/09/16 08:29:40;;;;;;;10.82;1.85;;;27.50;96.70;;;;;;5099880;28;20067;-81
2022/09/16 08:32:09;;;;;;;5.97;1.60;;;27.50;96.70;;;;;;5093745;28;20138;-81
2022/09/16 08:34:39;;;;;;;7.50;1.65;;;27.40;96.70;;;;;;5100369;28;20454;-80
2022/09/16 08:37:08;;;;;;;13.82;2.45;;;27.50;96.70;;;;;;5093134;28;20098;-80
2022/09/16 08:39:36;;;;;;;8.93;2.10;;;27.50;96.70;;;;;;5101937;28;20104;-80
2022/09/16 08:42:34;;;;;;;7.20;2.13;;;27.60;96.70;;;;;;5094122;27;20067;-79
2022/09/16 08:45:18;;;;;;;7.30;2.05;;;27.60;96.70;;;;;;5092429;28;20517;-80
2022/09/16 08:48:00;;;;;;;7.00;2.42;;;27.70;96.70;;;;;;5101104;27;20036;-78
2022/09/16 08:50:33;;;;;;;12.52;2.45;;;27.70;96.70;;;;;;5098252;27;20040;-80
2022/09/16 08:53:06;;;;;;;9.85;2.05;;;27.60;96.70;;;;;;5095473;28;20119;-81
2022/09/16 08:55:39;;;;;;;7.93;2.25;;;27.40;96.70;;;;;;5096257;28;20048;-79
2022/09/16 08:58:14;;;;;;;10.80;2.42;;;27.30;96.70;;;;;;5098426;28;20576;-81
2022/09/16 09:00:45;;;;;;;8.30;1.77;;;27.40;96.70;;;;;;5086354;28;20065;-81
2022/09/16 09:03:23;;;;;;;5.85;1.55;;;27.40;96.70;;;;;;5097324;28;20048;-82
2022/09/16 09:05:55;;;;;;;9.50;2.20;;;27.30;96.70;;;;;;5088136;28;20040;-81
2022/09/16 09:08:39;;;;;;;6.93;2.40;;;27.30;96.70;;;;;;5104227;27;20047;-81
2022/09/16 09:11:26;;;;;;;10.13;2.22;;;27.40;96.70;;;;;;5110406;27;20051;-83
2022/09/16 09:14:09;;;;;;;4.93;1.40;;;27.50;96.70;;;;;;5099613;28;20066;-80
2022/09/16 09:16:45;;;;;;;7.63;2.33;;;27.50;96.70;;;;;;5099201;28;20062;-80
2022/09/16 09:19:30;;;;;;;10.55;2.35;;;27.60;96.70;;;;;;5097041;27;20134;-82
2022/09/16 09:22:07;;;;;;;7.18;1.70;;;28.00;96.70;;;;;;5105360;27;20153;-77
2022/09/16 09:24:48;;;;;;;8.80;2.00;;;28.10;96.70;;;;;;5095556;28;20062;-79
2022/09/16 09:27:27;;;;;;;8.10;1.95;;;28.20;96.70;;;;;;5105092;28;20050;-88
2022/09/16 09:30:04;;;;;;;9.55;2.28;;;28.00;96.70;;;;;;5107206;28;20568;-83
2022/09/16 09:32:43;;;;;;;9.60;1.38;;;27.90;96.70;;;;;;5100987;27;20644;-84
2022/09/16 09:35:29;;;;;;;7.55;2.15;;;27.80;96.70;;;;;;5098986;27;20222;-83
2022/09/16 09:38:37;;;;;;;11.32;2.05;;;27.60;96.70;;;;;;5104983;28;20349;-85
2022/09/16 09:41:11;;;;;;;7.32;2.22;;;27.80;96.70;;;;;;5096927;28;20162;-85
2022/09/16 09:43:46;;;;;;;9.43;1.65;;;28.10;96.70;;;;;;5102764;28;20059;-83
2022/09/16 09:46:22;;;;;;;7.40;1.67;;;28.10;96.70;;;;;;5094342;28;20586;-81
2022/09/16 09:48:59;;;;;;;6.57;1.60;;;27.90;96.70;;;;;;5096300;27;20043;-81
2022/09/16 09:51:32;;;;;;;10.52;1.95;;;28.10;96.70;;;;;;5105226;27;20045;-79
2022/09/16 09:54:19;;;;;;;8.27;1.80;;;28.30;96.70;;;;;;5098862;27;20036;-77
2022/09/16 09:56:50;;;;;;;7.35;1.70;;;28.40;96.70;;;;;;5097790;28;20158;-77
2022/09/16 09:59:27;;;;;;;4.32;1.20;;;28.20;96.70;;;;;;5094208;28;20602;-77
2022/09/16 10:01:57;;;;;;;6.30;1.30;;;28.10;96.70;;;;;;5099079;28;20048;-77
2022/09/16 10:04:25;;;;;;;6.50;1.80;;;28.20;96.70;;;;;;5078723;28;20135;-75
2022/09/16 10:06:56;;;;;;;4.15;1.13;;;28.20;96.70;;;;;;5093999;28;20781;-78
2022/09/16 10:09:26;;;;;;;8.35;1.70;;;28.50;96.70;;;;;;5097014;28;20052;-75
2022/09/16 10:11:55;;;;;;;6.95;1.42;;;28.70;96.70;;;;;;5091635;28;20047;-79
2022/09/16 10:14:28;;;;;;;7.93;1.52;;;28.70;96.70;;;;;;5095750;28;20036;-76
2022/09/16 10:17:01;;;;;;;4.03;1.10;;;28.90;96.70;;;;;;5092905;28;20048;-79
2022/09/16 10:19:34;;;;;;;5.38;1.20;;;28.90;96.70;;;;;;5084644;28;20047;-79
2022/09/16 10:22:10;;;;;;;5.90;1.20;;;29.00;96.70;;;;;;5096454;28;20164;-78
2022/09/16 10:24:42;;;;;;;8.95;2.53;;;29.00;96.70;;;;;;5095086;28;20425;-79
2022/09/16 10:27:20;;;;;;;3.90;1.60;;;28.70;96.70;;;;;;5097285;28;20055;-77
2022/09/16 10:30:06;;;;;;;5.75;1.27;;;28.70;96.70;;;;;;5077573;28;20135;-80
2022/09/16 10:32:55;;;;;;;6.30;1.40;;;28.80;96.70;;;;;;5088537;28;20056;-80
2022/09/16 10:35:26;;;;;;;9.45;1.75;;;28.90;96.70;;;;;;5091128;28;20048;-79
2022/09/16 10:37:57;;;;;;;6.63;1.27;;;28.90;96.70;;;;;;5076850;28;20589;-78
2022/09/16 10:40:28;;;;;;;8.45;1.75;;;29.00;96.70;;;;;;5096767;28;20097;-79
2022/09/16 10:43:02;;;;;;;5.20;1.83;;;29.20;96.70;;;;;;5092698;28;20048;-77
2022/09/16 10:45:34;;;;;;;8.18;1.52;;;29.20;96.70;;;;;;5092516;28;20051;-78
2022/09/16 10:48:10;;;;;;;8.68;1.70;;;29.20;96.70;;;;;;5100686;28;20043;-77
2022/09/16 10:50:50;;;;;;;5.25;1.80;;;29.20;96.70;;;;;;5084743;28;20054;-78
2022/09/16 10:53:29;;;;;;;5.00;1.30;;;29.00;96.70;;;;;;5075458;28;20579;-78
2022/09/16 10:56:02;;;;;;;9.15;1.10;;;28.90;96.70;;;;;;5054319;28;20052;-77
2022/09/16 10:58:35;;;;;;;7.15;1.80;;;29.00;96.70;;;;;;5055660;28;20056;-76
2022/09/16 11:01:20;;;;;;;8.27;2.40;;;29.10;96.70;;;;;;5075416;28;20138;-77
2022/09/16 11:04:23;;;;;;;5.53;1.40;;;29.10;96.70;;;;;;5037491;28;20055;-76
2022/09/16 11:07:07;;;;;;;3.92;1.17;;;29.30;96.70;;;;;;5055322;28;20098;-76
2022/09/16 11:09:48;;;;;;;6.18;1.27;;;29.40;96.70;;;;;;5073133;28;20075;-74
2022/09/16 11:12:45;;;;;;;5.20;1.25;;;29.40;96.70;;;;;;5081901;28;20056;-78
2022/09/16 11:15:27;;;;;;;3.33;1.48;;;29.40;96.70;;;;;;5019471;28;20052;-76
2022/09/16 11:18:09;;;;;;;3.28;1.20;;;29.40;96.70;;;;;;5051767;28;20071;-76
2022/09/16 11:20:57;;;;;;;4.75;1.63;;;29.50;96.70;;;;;;5062346;28;20082;-75
2022/09/16 11:23:44;;;;;;;7.32;1.98;;;29.70;96.70;;;;;;5062295;28;20594;-77
2022/09/16 11:26:25;;;;;;;8.00;1.90;;;29.50;96.70;;;;;;5061808;28;20592;-76
2022/09/16 11:29:11;;;;;;;5.90;2.10;;;29.40;96.70;;;;;;5055533;28;20056;-77
2022/09/16 11:31:52;;;;;;;10.57;2.65;;;29.30;96.70;;;;;;5087402;28;20048;-76
2022/09/16 11:34:45;;;;;;;8.77;1.67;;;29.30;96.70;;;;;;5103978;27;20036;-76
2022/09/16 11:37:23;;;;;;;6.97;2.20;;;29.50;96.70;;;;;;5106223;27;20051;-78
2022/09/16 11:40:08;;;;;;;6.45;2.13;;;29.60;96.70;;;;;;5103354;28;20187;-79
2022/09/16 11:42:45;;;;;;;6.13;2.15;;;29.60;96.70;;;;;;5084233;28;20051;-76
2022/09/16 11:45:34;;;;;;;4.53;2.10;;;29.70;96.70;;;;;;5095767;28;20055;-76
2022/09/16 11:48:39;;;;;;;5.88;2.55;;;29.60;96.70;;;;;;5063622;28;20170;-76
2022/09/16 11:51:24;;;;;;;7.95;3.05;;;29.70;96.70;;;;;;5061842;28;20067;-78
2022/09/16 11:54:08;;;;;;;9.13;3.42;;;29.90;96.70;;;;;;5031766;28;20408;-78
2022/09/16 11:56:42;;;;;;;5.55;2.83;;;29.80;96.70;;;;;;5053013;28;20513;-76
2022/09/16 11:59:19;;;;;;;7.15;3.17;;;30.00;96.70;;;;;;5051841;28;20060;-76
2022/09/16 12:02:00;;;;;;;5.68;3.28;;;29.80;96.70;;;;;;5033816;28;20044;-78
2022/09/16 12:04:37;;;;;;;6.50;3.53;;;29.80;96.70;;;;;;5042301;28;20619;-77
2022/09/16 12:07:16;;;;;;;7.63;3.55;;;30.00;96.70;;;;;;5046358;28;20060;-80
2022/09/16 12:09:51;;;;;;;10.23;3.60;;;29.90;96.70;;;;;;5044019;28;20115;-78
2022/09/16 12:12:24;;;;;;;10.52;4.03;;;30.00;96.70;;;;;;5050490;28;20638;-78
2022/09/16 12:14:58;;;;;;;9.77;3.28;;;30.00;96.70;;;;;;5062023;28;20048;-79
2022/09/16 12:17:37;;;;;;;10.00;3.67;;;30.20;96.70;;;;;;5015874;28;22839;-78
2022/09/16 12:20:13;;;;;;;10.48;3.30;;;30.10;96.70;;;;;;5045748;28;20491;-78
2022/09/16 12:22:48;;;;;;;10.25;3.88;;;30.10;96.70;;;;;;5039139;28;20048;-78
2022/09/16 12:25:21;;;;;;;6.78;3.30;;;29.80;96.70;;;;;;5058281;28;20062;-78
2022/09/16 12:27:53;;;;;;;7.47;4.03;;;29.70;96.70;;;;;;5100228;28;20051;-76
2022/09/16 12:30:26;;;;;;;8.00;3.95;;;29.60;96.70;;;;;;5097437;28;20093;-77
2022/09/16 12:33:05;;;;;;;8.38;3.53;;;29.80;96.70;;;;;;5096913;28;20131;-77
2022/09/16 12:35:37;;;;;;;7.15;3.80;;;29.70;96.70;;;;;;5103057;28;20061;-78
2022/09/16 12:38:12;;;;;;;5.78;3.22;;;29.80;96.70;;;;;;5098014;28;20119;-78
2022/09/16 12:40:56;;;;;;;6.40;2.55;;;29.70;96.70;;;;;;5078047;28;20151;-76
2022/09/16 12:44:04;;;;;;;8.57;2.67;;;30.00;96.70;;;;;;5093708;28;20078;-76
2022/09/16 12:47:10;;;;;;;5.75;2.33;;;30.20;96.70;;;;;;5096990;28;20505;-76
2022/09/16 12:49:57;;;;;;;;;;;29.80;96.70;;;;;;5095807;28;20073;-77
2022/09/16 12:52:40;;;;;;;4.50;2.30;;;29.70;96.70;;;;;;5100374;28;19930;-79
2022/09/16 12:55:34;;;;;;;6.82;1.95;;;29.80;96.70;;;;;;5094303;28;20040;-77
2022/09/16 12:58:23;;;;;;;8.50;2.28;;;29.40;96.70;;;;;;5097907;28;20058;-79
2022/09/16 13:01:02;;;;;;;5.13;1.60;;;29.40;96.70;;;;;;5082027;28;20543;-76
2022/09/16 13:03:32;;;;;;;9.43;1.92;;;29.30;96.70;;;;;;5081811;28;20394;-77
2022/09/16 13:06:05;;;;;;;6.03;1.98;;;29.50;96.70;;;;;;5091665;28;20040;-78
2022/09/16 13:08:36;;;;;;;4.78;1.48;;;29.20;96.70;;;;;;5103906;28;20085;-78
2022/09/16 13:11:07;;;;;;;6.07;1.70;;;29.10;96.70;;;;;;5093617;28;20070;-78
2022/09/16 13:13:57;;;;;;;7.30;1.80;;;29.00;96.70;;;;;;5095088;28;20046;-77
2022/09/16 13:16:30;;;;;;;9.48;2.08;;;29.30;96.70;;;;;;5078817;28;20063;-77
2022/09/16 13:19:27;;;;;;;7.50;2.15;;;29.20;96.70;;;;;;5093792;28;20068;-77
2022/09/16 13:21:58;;;;;;;7.38;1.77;;;29.30;96.70;;;;;;5097338;28;20040;-77